createdAt,value
2022-10-09T00:01:21.564Z,38.83
2022-10-09T00:03:53.119Z,38.75
2022-10-09T00:06:23.142Z,38.92
2022-10-09T00:08:51.501Z,39.88
2022-10-09T00:11:23.719Z,39.25
2022-10-09T00:13:53.075Z,39.20
2022-10-09T00:16:23.327Z,39.25
2022-10-09T00:18:56.035Z,39.67
2022-10-09T00:21:25.949Z,37.42
2022-10-09T00:23:56.277Z,38.42
2022-10-09T00:26:24.761Z,36.88
2022-10-09T00:28:52.984Z,37.78
2022-10-09T00:31:21.431Z,37.63
2022-10-09T00:33:49.603Z,38.83
2022-10-09T00:36:21.760Z,39.40
2022-10-09T00:38:50.252Z,36.22
2022-10-09T00:41:21.081Z,38.70
2022-10-09T00:43:51.484Z,39.60
2022-10-09T00:46:28.554Z,38.67
2022-10-09T00:49:06.330Z,37.85
2022-10-09T00:51:36.335Z,38.20
2022-10-09T00:54:06.531Z,38.05
2022-10-09T00:56:35.530Z,37.83
2022-10-09T00:59:04.407Z,38.35
2022-10-09T01:01:32.449Z,38.50
2022-10-09T01:04:00.374Z,37.65
2022-10-09T01:06:37.157Z,37.67
2022-10-09T01:09:13.919Z,37.42
2022-10-09T01:11:50.142Z,39.70
2022-10-09T01:14:25.500Z,38.88
2022-10-09T01:17:02.955Z,37.72
2022-10-09T01:19:45.663Z,38.33
2022-10-09T01:22:29.703Z,38.10
2022-10-09T01:25:06.173Z,39.63
2022-10-09T01:27:38.248Z,36.95
2022-10-09T01:30:09.779Z,38.28
2022-10-09T01:32:42.894Z,38.60
2022-10-09T01:35:13.748Z,38.38
2022-10-09T01:37:43.370Z,37.95
2022-10-09T01:40:13.690Z,38.20
2022-10-09T01:42:47.230Z,39.25
2022-10-09T01:45:16.356Z,38.60
2022-10-09T01:47:45.074Z,38.22
2022-10-09T01:50:20.443Z,39.08
2022-10-09T01:52:52.175Z,37.45
2022-10-09T01:55:37.365Z,38.47
2022-10-09T01:58:13.030Z,39.17
2022-10-09T02:00:45.238Z,38.22
2022-10-09T02:03:15.560Z,38.10
2022-10-09T02:05:46.265Z,37.88
2022-10-09T02:08:16.820Z,38.15
2022-10-09T02:10:46.916Z,38.60
2022-10-09T02:13:16.350Z,38.42
2022-10-09T02:15:49.279Z,39.35
2022-10-09T02:18:24.258Z,37.33
2022-10-09T02:20:56.760Z,38.83
2022-10-09T02:23:26.834Z,37.40
2022-10-09T02:25:55.285Z,37.42
2022-10-09T02:28:24.695Z,38.47
2022-10-09T02:30:57.730Z,37.17
2022-10-09T02:33:29.224Z,38.10
2022-10-09T02:35:57.525Z,36.70
2022-10-09T02:38:25.504Z,36.35
2022-10-09T02:40:53.669Z,36.22
2022-10-09T02:43:21.775Z,36.42
2022-10-09T02:45:51.289Z,35.70
2022-10-09T02:48:19.415Z,36.40
2022-10-09T02:50:47.509Z,36.00
2022-10-09T02:53:15.510Z,35.22
2022-10-09T02:55:43.557Z,35.63
2022-10-09T02:58:11.537Z,36.20
2022-10-09T03:00:39.752Z,37.35
2022-10-09T03:03:09.308Z,36.83
2022-10-09T03:05:37.283Z,34.92
2022-10-09T03:08:05.802Z,34.08
2022-10-09T03:10:33.807Z,34.80
2022-10-09T03:13:01.823Z,35.22
2022-10-09T03:15:29.829Z,35.55
2022-10-09T03:17:57.768Z,35.42
2022-10-09T03:20:27.189Z,35.97
2022-10-09T03:22:55.145Z,36.60
2022-10-09T03:25:23.168Z,35.42
2022-10-09T03:27:51.112Z,36.20
2022-10-09T03:30:19.041Z,35.75
2022-10-09T03:32:47.390Z,34.47
2022-10-09T03:35:15.632Z,35.20
2022-10-09T03:37:46.216Z,35.33
2022-10-09T03:40:14.178Z,36.55
2022-10-09T03:42:42.154Z,35.55
2022-10-09T03:45:11.109Z,36.30
2022-10-09T03:47:39.233Z,35.78
2022-10-09T03:50:08.327Z,35.90
2022-10-09T03:52:37.240Z,36.10
2022-10-09T03:55:07.988Z,36.25
2022-10-09T03:57:36.530Z,36.20
2022-10-09T04:00:06.041Z,35.22
2022-10-09T04:02:35.637Z,34.85
2022-10-09T04:05:04.041Z,34.28
2022-10-09T04:07:31.982Z,34.35
2022-10-09T04:10:00.157Z,34.78
2022-10-09T04:12:29.595Z,35.28
2022-10-09T04:14:57.512Z,36.15
2022-10-09T04:17:25.518Z,34.33
2022-10-09T04:19:53.514Z,33.95
2022-10-09T04:22:21.487Z,32.80
2022-10-09T04:24:49.410Z,34.22
2022-10-09T04:27:17.834Z,33.67
2022-10-09T04:29:47.450Z,35.28
2022-10-09T04:32:15.435Z,33.75
2022-10-09T04:34:43.393Z,33.50
2022-10-09T04:37:11.428Z,33.50
2022-10-09T04:39:39.340Z,31.85
2022-10-09T04:42:07.627Z,31.88
2022-10-09T04:44:35.702Z,35.33
2022-10-09T04:47:07.098Z,32.33
2022-10-09T04:49:38.609Z,33.15
2022-10-09T04:52:06.581Z,34.88
2022-10-09T04:54:34.685Z,33.72
2022-10-09T04:57:02.774Z,34.20
2022-10-09T04:59:30.921Z,32.83
2022-10-09T05:01:58.857Z,35.85
2022-10-09T05:04:28.302Z,34.30
2022-10-09T05:06:56.344Z,35.33
2022-10-09T05:09:24.312Z,34.92
2022-10-09T05:11:52.278Z,34.65
2022-10-09T05:14:20.351Z,35.42
2022-10-09T05:17:12.584Z,34.92
2022-10-09T05:19:41.293Z,35.25
2022-10-09T05:22:09.217Z,36.05
2022-10-09T05:24:37.176Z,35.05
2022-10-09T05:27:07.552Z,34.88
2022-10-09T05:29:35.474Z,35.00
2022-10-09T05:32:03.623Z,33.85
2022-10-09T05:34:31.645Z,33.70
2022-10-09T05:37:01.053Z,34.20
2022-10-09T05:39:31.925Z,33.47
2022-10-09T05:42:00.350Z,35.95
2022-10-09T05:44:29.058Z,33.72
2022-10-09T05:46:58.184Z,33.70
2022-10-09T05:49:26.430Z,34.58
2022-10-09T05:51:55.919Z,34.13
2022-10-09T05:54:25.256Z,35.45
2022-10-09T05:56:53.285Z,34.17
2022-10-09T05:59:21.345Z,33.80
2022-10-09T06:01:51.246Z,33.97
2022-10-09T06:04:24.282Z,33.35
2022-10-09T06:06:52.907Z,33.65
2022-10-09T06:09:23.967Z,32.78
2022-10-09T06:11:54.561Z,33.00
2022-10-09T06:14:24.433Z,32.13
2022-10-09T06:16:52.659Z,32.90
2022-10-09T06:19:21.417Z,31.70
2022-10-09T06:21:50.544Z,32.07
2022-10-09T06:24:25.550Z,31.25
2022-10-09T06:26:57.622Z,31.75
2022-10-09T06:29:28.399Z,31.70
2022-10-09T06:31:56.334Z,31.92
2022-10-09T06:34:24.531Z,30.58
2022-10-09T06:36:52.571Z,31.05
2022-10-09T06:39:20.817Z,31.73
2022-10-09T06:41:48.966Z,31.50
2022-10-09T06:44:18.596Z,32.33
2022-10-09T06:46:49.775Z,31.83
2022-10-09T06:49:17.803Z,31.25
2022-10-09T06:51:45.841Z,32.17
2022-10-09T06:54:16.313Z,33.17
2022-10-09T06:56:44.599Z,31.98
2022-10-09T06:59:13.180Z,32.60
2022-10-09T07:01:42.660Z,30.88
2022-10-09T07:04:12.550Z,32.22
2022-10-09T07:06:42.645Z,33.72
2022-10-09T07:09:12.281Z,32.00
2022-10-09T07:11:43.034Z,32.55
2022-10-09T07:14:12.336Z,32.15
2022-10-09T07:16:43.878Z,33.00
2022-10-09T07:19:13.370Z,33.63
2022-10-09T07:21:43.161Z,33.63
2022-10-09T07:24:11.418Z,32.55
2022-10-09T07:26:41.456Z,33.80
2022-10-09T07:29:12.124Z,32.92
2022-10-09T07:31:40.131Z,32.10
2022-10-09T07:34:09.727Z,33.10
2022-10-09T07:36:38.051Z,33.45
2022-10-09T07:39:06.775Z,33.38
2022-10-09T07:41:38.034Z,33.50
2022-10-09T07:44:05.967Z,35.05
2022-10-09T07:46:35.885Z,33.55
2022-10-09T07:49:04.516Z,34.80
2022-10-09T07:51:33.952Z,35.70
2022-10-09T07:54:02.892Z,36.42
2022-10-09T07:56:32.911Z,34.88
2022-10-09T07:59:02.669Z,33.83
2022-10-09T08:01:32.054Z,34.75
2022-10-09T08:04:01.237Z,33.65
2022-10-09T08:06:29.589Z,33.67
2022-10-09T08:09:00.892Z,33.38
2022-10-09T08:11:30.277Z,32.63
2022-10-09T08:13:58.558Z,29.17
2022-10-09T08:16:28.268Z,28.48
2022-10-09T08:18:57.821Z,28.10
2022-10-09T08:21:28.067Z,30.05
2022-10-09T08:23:59.182Z,28.65
2022-10-09T08:26:29.092Z,27.90
2022-10-09T08:28:59.263Z,27.17
2022-10-09T08:31:28.655Z,25.42
2022-10-09T08:33:58.535Z,26.17
2022-10-09T08:36:27.926Z,26.15
2022-10-09T08:38:56.430Z,24.67
2022-10-09T08:41:42.723Z,23.25
2022-10-09T08:44:20.048Z,23.95
2022-10-09T08:47:04.845Z,21.17
2022-10-09T08:49:41.867Z,21.65
2022-10-09T08:52:23.598Z,21.25
2022-10-09T08:54:53.681Z,22.67
2022-10-09T08:57:24.272Z,23.35
2022-10-09T08:59:52.459Z,23.15
2022-10-09T09:02:34.488Z,22.33
2022-10-09T09:05:13.545Z,22.48
2022-10-09T09:07:51.728Z,21.45
2022-10-09T09:10:29.949Z,23.00
2022-10-09T09:13:07.435Z,20.95
2022-10-09T09:15:47.017Z,19.73
2022-10-09T09:18:29.238Z,16.33
2022-10-09T09:21:05.523Z,17.90
2022-10-09T09:23:41.514Z,16.75
2022-10-09T09:26:14.469Z,18.17
2022-10-09T09:28:44.730Z,15.70
2022-10-09T09:31:20.156Z,16.30
2022-10-09T09:33:59.592Z,13.43
2022-10-09T09:36:32.489Z,12.75
2022-10-09T09:41:51.458Z,10.77
2022-10-09T09:44:21.303Z,10.32
2022-10-09T09:46:53.053Z,11.35
2022-10-09T09:49:23.773Z,8.93
2022-10-09T09:51:52.582Z,8.93
2022-10-09T09:54:23.690Z,10.15
2022-10-09T09:57:15.824Z,6.75
2022-10-09T09:59:46.146Z,5.07
2022-10-09T10:02:18.069Z,5.25
2022-10-09T10:04:51.899Z,4.85
2022-10-09T10:07:30.741Z,5.05
2022-10-09T10:10:07.831Z,4.57
2022-10-09T10:12:41.455Z,4.13
2022-10-09T10:15:21.077Z,3.15
2022-10-09T10:17:50.424Z,4.25
2022-10-09T10:20:19.399Z,3.35
2022-10-09T10:22:53.953Z,2.92
2022-10-09T10:25:25.690Z,3.67
2022-10-09T10:27:59.098Z,3.60
2022-10-09T10:30:29.070Z,2.90
2022-10-09T10:33:02.586Z,3.30
2022-10-09T10:35:34.230Z,3.10
2022-10-09T10:38:06.435Z,2.75
2022-10-09T10:40:37.733Z,2.78
2022-10-09T10:43:16.486Z,2.80
2022-10-09T10:46:05.611Z,2.80
2022-10-09T10:48:39.240Z,2.80
2022-10-09T10:51:17.508Z,3.15
2022-10-09T10:54:08.741Z,3.10
2022-10-09T10:56:42.272Z,2.85
2022-10-09T10:59:38.187Z,2.53
2022-10-09T11:02:41.989Z,3.33
2022-10-09T11:05:31.847Z,2.30
2022-10-09T11:08:16.890Z,2.83
2022-10-09T11:10:55.473Z,2.60
2022-10-09T11:13:29.885Z,2.80
2022-10-09T11:39:06.812Z,3.00
2022-10-09T11:41:37.704Z,3.17
2022-10-09T11:44:24.092Z,2.80
2022-10-09T11:47:02.197Z,3.03
2022-10-09T11:49:38.534Z,3.15
2022-10-09T11:52:18.103Z,2.58
2022-10-09T11:54:50.031Z,2.60
2022-10-09T11:57:29.008Z,2.60
2022-10-09T12:00:08.023Z,3.63
2022-10-09T12:02:36.642Z,2.90
2022-10-09T12:05:18.567Z,3.78
2022-10-09T12:07:47.439Z,2.75
2022-10-09T12:10:32.549Z,2.60
2022-10-09T12:13:03.478Z,2.83
2022-10-09T12:15:41.854Z,3.08
2022-10-09T12:18:21.969Z,2.47
2022-10-09T12:20:51.835Z,3.15
2022-10-09T12:23:27.065Z,3.40
2022-10-09T12:25:58.372Z,2.75
2022-10-09T12:28:30.945Z,3.25
2022-10-09T12:31:01.504Z,2.85
2022-10-09T12:33:36.002Z,2.60
2022-10-09T12:36:07.640Z,2.60
2022-10-09T12:38:35.670Z,2.53
2022-10-09T12:41:08.123Z,2.60
2022-10-09T12:43:36.352Z,2.53
2022-10-09T12:46:05.048Z,2.58
2022-10-09T12:48:40.144Z,2.83
2022-10-09T12:51:20.618Z,2.70
2022-10-09T12:53:51.522Z,2.20
2022-10-09T12:56:27.455Z,2.80
2022-10-09T12:58:57.408Z,2.75
2022-10-09T13:01:26.442Z,2.47
2022-10-09T13:04:10.912Z,2.90
2022-10-09T13:14:43.683Z,2.80
2022-10-09T13:17:24.738Z,2.40
2022-10-09T13:19:54.746Z,2.53
2022-10-09T13:22:23.690Z,2.38
2022-10-09T13:24:54.179Z,2.55
2022-10-09T13:27:24.761Z,2.20
2022-10-09T13:29:54.695Z,2.10
2022-10-09T13:32:24.225Z,2.97
2022-10-09T13:34:55.044Z,2.92
2022-10-09T13:37:25.560Z,2.70
2022-10-09T13:39:54.185Z,2.30
2022-10-09T13:42:23.169Z,2.35
2022-10-09T13:44:51.057Z,2.60
2022-10-09T13:47:24.194Z,2.67
2022-10-09T13:49:52.625Z,2.33
2022-10-09T13:52:20.709Z,2.83
2022-10-09T13:54:48.677Z,2.60
2022-10-09T13:57:16.583Z,2.78
2022-10-09T13:59:45.104Z,2.78
2022-10-09T14:02:13.600Z,2.60
2022-10-09T14:04:43.323Z,2.35
2022-10-09T14:07:11.287Z,2.42
2022-10-09T14:09:39.264Z,2.15
2022-10-09T14:12:07.270Z,2.30
2022-10-09T14:14:35.428Z,3.03
2022-10-09T14:17:03.450Z,2.60
2022-10-09T14:19:31.376Z,2.80
2022-10-09T14:22:01.057Z,3.13
2022-10-09T14:24:29.122Z,2.45
2022-10-09T14:26:57.473Z,2.50
2022-10-09T14:29:25.520Z,2.92
2022-10-09T14:31:53.478Z,2.55
2022-10-09T14:34:21.978Z,2.28
2022-10-09T14:36:50.419Z,2.60
2022-10-09T14:39:19.797Z,2.55
2022-10-09T14:41:47.848Z,2.58
2022-10-09T14:44:15.881Z,2.55
2022-10-09T14:46:43.968Z,2.35
2022-10-09T14:49:15.424Z,2.47
2022-10-09T14:51:46.973Z,2.90
2022-10-09T14:54:15.107Z,2.47
2022-10-09T14:56:44.454Z,2.58
2022-10-09T14:59:12.445Z,2.40
2022-10-09T15:01:40.469Z,2.70
2022-10-09T15:04:08.610Z,3.10
2022-10-09T15:06:36.791Z,3.10
2022-10-09T15:09:06.243Z,3.40
2022-10-09T15:11:35.932Z,2.85
2022-10-09T15:14:05.943Z,2.97
2022-10-09T15:16:34.056Z,2.30
2022-10-09T15:19:02.366Z,2.58
2022-10-09T15:21:32.220Z,2.45
2022-10-09T15:24:02.370Z,2.70
2022-10-09T15:26:33.792Z,2.35
2022-10-09T15:29:03.406Z,2.50
2022-10-09T15:31:34.641Z,3.00
2022-10-09T15:34:03.376Z,2.75
2022-10-09T15:36:34.226Z,2.40
2022-10-09T15:39:05.577Z,2.90
2022-10-09T15:41:35.971Z,3.05
2022-10-09T15:44:06.292Z,2.63
2022-10-09T15:46:35.914Z,2.75
2022-10-09T15:49:03.926Z,3.22
2022-10-09T15:51:33.214Z,2.70
2022-10-09T15:54:01.856Z,2.58
2022-10-09T15:56:30.640Z,2.92
2022-10-09T15:58:59.611Z,2.53
2022-10-09T16:01:27.930Z,3.33
2022-10-09T16:03:57.985Z,3.05
2022-10-09T16:06:26.141Z,3.47
2022-10-09T16:08:57.505Z,2.90
2022-10-09T16:11:26.953Z,3.13
2022-10-09T16:13:56.204Z,3.20
2022-10-09T16:16:27.292Z,3.35
2022-10-09T16:18:57.783Z,3.50
2022-10-09T16:21:27.797Z,2.72
2022-10-09T16:23:59.100Z,2.88
2022-10-09T16:26:30.103Z,3.17
2022-10-09T16:28:58.784Z,2.97
2022-10-09T16:31:28.144Z,2.97
2022-10-09T16:33:57.828Z,3.00
2022-10-09T16:36:25.938Z,3.13
2022-10-09T16:38:54.303Z,2.80
2022-10-09T16:41:23.909Z,2.90
2022-10-09T16:43:54.781Z,2.92
2022-10-09T16:46:25.873Z,2.85
2022-10-09T16:48:55.604Z,4.63
2022-10-09T16:51:26.537Z,3.53
2022-10-09T16:54:19.505Z,3.22
2022-10-09T16:56:49.921Z,2.85
2022-10-09T16:59:18.029Z,3.00
2022-10-09T17:01:47.760Z,2.70
2022-10-09T17:04:16.777Z,2.88
2022-10-09T17:06:46.731Z,2.70
2022-10-09T17:09:14.864Z,3.35
2022-10-09T17:11:43.421Z,2.80
2022-10-09T17:14:14.281Z,3.08
2022-10-09T17:16:44.025Z,2.75
2022-10-09T17:19:11.984Z,2.80
2022-10-09T17:21:40.311Z,2.72
2022-10-09T17:24:13.217Z,2.67
2022-10-09T17:26:41.200Z,3.08
2022-10-09T17:29:09.338Z,2.72
2022-10-09T17:31:40.417Z,2.83
2022-10-09T17:34:08.489Z,3.50
2022-10-09T17:36:38.804Z,3.22
2022-10-09T17:39:10.326Z,3.03
2022-10-09T17:41:38.651Z,3.13
2022-10-09T17:44:07.059Z,3.05
2022-10-09T17:46:35.784Z,3.17
2022-10-09T17:49:06.713Z,3.45
2022-10-09T17:51:36.822Z,3.75
2022-10-09T17:54:11.933Z,3.25
2022-10-09T17:56:48.259Z,3.90
2022-10-09T17:59:16.713Z,3.72
2022-10-09T18:01:44.889Z,3.80
2022-10-09T18:04:16.225Z,3.78
2022-10-09T18:06:46.104Z,4.45
2022-10-09T18:09:14.150Z,3.83
2022-10-09T18:11:43.654Z,4.18
2022-10-09T18:14:11.799Z,4.63
2022-10-09T18:16:40.593Z,4.20
2022-10-09T18:19:11.513Z,4.50
2022-10-09T18:21:41.789Z,4.30
2022-10-09T18:24:10.169Z,4.75
2022-10-09T18:26:38.050Z,5.10
2022-10-09T18:29:07.958Z,5.38
2022-10-09T18:31:36.724Z,6.03
2022-10-09T18:34:04.721Z,6.28
2022-10-09T18:36:34.367Z,7.28
2022-10-09T18:39:04.700Z,5.80
2022-10-09T18:41:32.898Z,5.82
2022-10-09T18:44:02.170Z,8.07
2022-10-09T18:46:35.629Z,6.70
2022-10-09T18:49:04.315Z,7.35
2022-10-09T18:51:32.777Z,6.80
2022-10-09T18:54:03.820Z,6.40
2022-10-09T18:56:33.760Z,6.25
2022-10-09T18:59:04.688Z,6.25
2022-10-09T19:01:34.517Z,6.00
2022-10-09T19:04:02.478Z,5.97
2022-10-09T19:06:30.744Z,6.20
2022-10-09T19:09:00.804Z,5.85
2022-10-09T19:11:30.083Z,6.40
2022-10-09T19:14:00.392Z,6.78
2022-10-09T19:16:28.912Z,5.93
2022-10-09T19:18:58.588Z,8.18
2022-10-09T19:21:27.609Z,7.90
2022-10-09T19:23:55.984Z,7.38
2022-10-09T19:26:24.719Z,6.55
2022-10-09T19:28:52.649Z,8.38
2022-10-09T19:31:20.662Z,7.20
2022-10-09T19:33:48.750Z,7.72
2022-10-09T19:36:18.332Z,8.18
2022-10-09T19:38:46.982Z,7.22
2022-10-09T19:41:16.619Z,7.70
2022-10-09T19:43:45.164Z,7.40
2022-10-09T19:46:17.053Z,7.57
2022-10-09T19:48:45.907Z,8.45
2022-10-09T19:51:18.108Z,7.38
2022-10-09T19:53:47.091Z,9.18
2022-10-09T19:56:17.140Z,9.13
2022-10-09T19:58:46.897Z,9.40
2022-10-09T20:01:16.933Z,10.40
2022-10-09T20:03:45.694Z,9.85
2022-10-09T20:06:14.068Z,10.75
2022-10-09T20:08:45.210Z,10.52
2022-10-09T20:11:13.927Z,12.80
2022-10-09T20:13:43.303Z,12.82
2022-10-09T20:16:13.024Z,12.93
2022-10-09T20:18:42.381Z,12.60
2022-10-09T20:21:12.332Z,12.02
2022-10-09T20:23:40.354Z,9.68
2022-10-09T20:26:12.399Z,9.38
2022-10-09T20:28:41.011Z,9.32
2022-10-09T20:31:14.670Z,8.75
2022-10-09T20:33:44.134Z,7.32
2022-10-09T20:36:20.673Z,7.38
2022-10-09T20:38:48.888Z,6.82
2022-10-09T20:41:19.013Z,7.82
2022-10-09T20:43:51.914Z,6.57
2022-10-09T20:46:21.163Z,6.63
2022-10-09T20:48:49.376Z,6.45
2022-10-09T20:51:18.552Z,6.88
2022-10-09T20:53:46.598Z,7.22
2022-10-09T20:56:15.856Z,7.13
2022-10-09T20:58:45.482Z,6.97
2022-10-09T21:01:15.304Z,7.55
2022-10-09T21:03:43.310Z,6.63
2022-10-09T21:06:13.307Z,7.15
2022-10-09T21:08:41.433Z,7.03
2022-10-09T21:11:11.570Z,7.25
2022-10-09T21:13:41.725Z,7.60
2022-10-09T21:16:13.164Z,7.65
2022-10-09T21:18:41.404Z,7.85
2022-10-09T21:21:11.269Z,7.90
2022-10-09T21:23:39.890Z,7.72
2022-10-09T21:26:12.733Z,8.27
2022-10-09T21:28:40.978Z,7.78
2022-10-09T21:31:11.567Z,9.13
2022-10-09T21:33:39.611Z,8.93
2022-10-09T21:36:11.682Z,9.75
2022-10-09T21:38:39.963Z,10.57
2022-10-09T21:41:07.866Z,9.73
2022-10-09T21:43:36.287Z,12.50
2022-10-09T21:46:04.290Z,12.57
2022-10-09T21:48:33.785Z,12.63
2022-10-09T21:51:01.855Z,12.77
2022-10-09T21:53:29.870Z,12.00
2022-10-09T21:55:58.576Z,12.95
2022-10-09T21:58:26.594Z,15.88
2022-10-09T22:00:58.505Z,16.45
2022-10-09T22:03:27.028Z,18.73
2022-10-09T22:05:56.941Z,18.52
2022-10-09T22:08:25.783Z,18.90
2022-10-09T22:10:53.650Z,23.98
2022-10-09T22:13:21.949Z,23.80
2022-10-09T22:15:51.349Z,21.60
2022-10-09T22:18:20.610Z,23.30
2022-10-09T22:20:50.111Z,22.67
2022-10-09T22:23:21.212Z,21.17
2022-10-09T22:25:58.672Z,22.48
2022-10-09T22:28:26.717Z,21.70
2022-10-09T22:31:08.739Z,24.58
2022-10-09T22:33:37.253Z,23.85
2022-10-09T22:36:10.145Z,23.65
2022-10-09T22:38:40.199Z,25.17
2022-10-09T22:41:10.549Z,26.63
2022-10-09T22:43:40.562Z,27.52
2022-10-09T22:46:11.073Z,27.88
2022-10-09T22:48:39.691Z,28.20
2022-10-09T22:51:09.791Z,28.83
2022-10-09T22:53:40.346Z,29.42
2022-10-09T22:56:09.120Z,27.17
2022-10-09T22:58:37.210Z,31.88
2022-10-09T23:01:07.683Z,32.28
2022-10-09T23:03:35.824Z,27.50
2022-10-09T23:06:08.868Z,30.17
2022-10-09T23:08:40.666Z,30.75
2022-10-09T23:11:08.936Z,30.02
2022-10-09T23:13:37.895Z,31.33
2022-10-09T23:16:08.293Z,32.83
2022-10-09T23:18:38.235Z,33.10
2022-10-09T23:21:07.863Z,34.92
2022-10-09T23:23:35.861Z,35.03
2022-10-09T23:26:06.941Z,35.72
2022-10-09T23:28:35.587Z,34.65
2022-10-09T23:31:04.067Z,35.00
2022-10-09T23:33:32.223Z,33.03
2022-10-09T23:36:00.408Z,32.97
2022-10-09T23:38:28.474Z,32.28
2022-10-09T23:40:57.512Z,37.05
2022-10-09T23:43:27.321Z,36.88
2022-10-09T23:45:56.616Z,37.05
2022-10-09T23:48:24.757Z,38.47
2022-10-09T23:50:53.427Z,36.83
2022-10-09T23:53:22.369Z,35.13
2022-10-09T23:55:50.611Z,35.53
2022-10-09T23:58:21.023Z,34.63
